Aviation Digital Data Service (ADDS)

Output produced by METARs form (1243 UTC 25 July 2017)
found at http://bcaws.aviationweather.gov/adds/metars/
 
METAR text: KMOD 251153Z AUTO 30005KT 10SM CLR 18/12 A2985 RMK AO2 SLP108 T01780122 10222 20178 53004
Conditions at: KMOD (MODESTO , CA, US) observed 1153 UTC 25 July 2017
Temperature: 17.8°C (64°F)
Dewpoint: 12.2°C (54°F) [RH = 70%]
Pressure (altimeter): 29.85 inches Hg (1010.9 mb)
[Sea-level pressure: 1010.8 mb]
Winds: from the WNW (300 degrees) at 6 MPH (5 knots; 2.6 m/s)
Visibility: 10 or more miles (16+ km)
Ceiling: at least 12,000 feet AGL
Clouds: sky clear below 12,000 feet AGL
Weather: automated observation with no human augmentation;
there may or may not be significant weather present at this time